Time;durP1;ratioP1;P1;durP2;ratioP2;P2;SDS_P1;SDS_P2;PMS_P1;PMS_P2;Temp;Humidity;BMP_temperature;BMP_pressure;BME280_temperature;BME280_humidity;BME280_pressure;Samples;Min_cycle;Max_cycle;Signal;HPM_P1;HPM_P2
2021/06/15 00:01:48;;;;;;;3.88;2.67;;;;;;;18.87;53.23;97447.44;5037324;28;20128;-82
2021/06/15 00:04:13;;;;;;;5.57;2.92;;;;;;;18.81;53.71;97445.91;5001537;28;20041;-82
2021/06/15 00:06:39;;;;;;;5.43;2.80;;;;;;;18.76;53.55;97438.09;5028065;28;20412;-82
2021/06/15 00:09:04;;;;;;;3.58;2.70;;;;;;;18.67;53.62;97430.06;5010823;28;20025;-81
2021/06/15 00:11:30;;;;;;;4.15;2.63;;;;;;;18.69;53.83;97448.25;5018699;28;20030;-82
2021/06/15 00:13:55;;;;;;;3.70;2.58;;;;;;;18.62;53.71;97440.72;5007826;28;20449;-81
2021/06/15 00:16:20;;;;;;;3.97;2.53;;;;;;;18.61;53.51;97433.88;5017133;28;20053;-81
2021/06/15 00:18:46;;;;;;;4.10;2.92;;;;;;;18.62;53.86;97440.72;5020100;28;20112;-81
2021/06/15 00:21:12;;;;;;;3.15;2.75;;;;;;;18.56;53.62;97438.44;5002190;28;20025;-81
2021/06/15 00:23:37;;;;;;;3.20;2.47;;;;;;;18.56;53.52;97439.25;5032977;28;20384;-81
2021/06/15 00:26:03;;;;;;;4.35;2.65;;;;;;;18.57;53.64;97448.69;4997277;28;20083;-81
2021/06/15 00:28:28;;;;;;;3.33;2.67;;;;;;;18.65;53.44;97447.28;4999745;28;20674;-81
2021/06/15 00:30:54;;;;;;;4.28;2.75;;;;;;;18.71;52.84;97438.97;5032146;28;20468;-81
2021/06/15 00:33:19;;;;;;;3.70;2.60;;;;;;;18.69;53.02;97435.06;5004421;28;20041;-81
2021/06/15 00:35:45;;;;;;;4.57;2.45;;;;;;;18.62;53.55;97429.38;5013861;28;20032;-81
2021/06/15 00:38:10;;;;;;;4.40;2.28;;;;;;;18.61;53.88;97441.00;5000074;28;20048;-81
2021/06/15 00:40:36;;;;;;;2.88;2.40;;;;;;;18.60;53.52;97431.53;5053298;28;20361;-81
2021/06/15 00:43:01;;;;;;;3.58;2.70;;;;;;;18.51;53.54;97416.38;4997992;28;20030;-81
2021/06/15 00:45:28;;;;;;;4.88;2.30;;;;;;;18.40;53.72;97425.50;5012173;28;20864;-81
2021/06/15 00:47:54;;;;;;;3.55;2.70;;;;;;;18.41;53.75;97426.31;5029475;28;20021;-81
2021/06/15 00:50:21;;;;;;;3.40;2.33;;;;;;;18.34;53.73;97416.91;5024072;28;20029;-81
2021/06/15 00:52:46;;;;;;;4.03;2.63;;;;;;;18.40;53.87;97435.28;5018512;28;20029;-81
2021/06/15 00:55:13;;;;;;;4.15;2.67;;;;;;;18.41;53.74;97427.09;4995955;28;20044;-81
2021/06/15 00:57:38;;;;;;;2.88;2.47;;;;;;;18.40;53.14;97409.69;4991938;28;20030;-82
2021/06/15 01:00:05;;;;;;;5.22;3.00;;;;;;;18.33;53.09;97414.56;4985425;28;20041;-81
2021/06/15 01:02:31;;;;;;;3.83;2.63;;;;;;;18.40;53.36;97422.09;5037465;23;20048;-77
2021/06/15 01:05:00;;;;;;;3.85;2.40;;;;;;;18.30;53.80;97420.41;5051618;28;20032;-77
2021/06/15 01:07:35;;;;;;;4.53;2.80;;;;;;;18.13;54.49;97426.22;5032705;28;20033;-77
2021/06/15 01:10:27;;;;;;;3.20;2.50;;;;;;;17.98;54.90;97416.69;5049038;28;20017;-77
2021/06/15 01:13:14;;;;;;;3.78;3.10;;;;;;;18.13;54.29;97423.59;5025891;28;20499;-77
2021/06/15 01:15:46;;;;;;;3.15;2.92;;;;;;;18.01;54.29;97416.13;5052568;28;20096;-77
2021/06/15 01:18:17;;;;;;;4.65;2.78;;;;;;;18.00;54.32;97419.81;5017445;28;20064;-77
2021/06/15 01:20:47;;;;;;;3.33;2.92;;;;;;;18.13;53.85;97423.59;5035446;28;20086;-77
2021/06/15 01:23:32;;;;;;;3.03;2.30;;;;;;;18.15;53.62;97424.84;5039400;28;20029;-77
2021/06/15 01:26:06;;;;;;;3.28;2.63;;;;;;;18.16;53.63;97423.00;5030022;28;20065;-77
2021/06/15 01:28:48;;;;;;;3.67;2.90;;;;;;;17.89;54.67;97429.72;5052417;28;20052;-77
2021/06/15 01:31:26;;;;;;;4.50;2.38;;;;;;;17.77;55.30;97419.59;5049507;28;20029;-77
2021/06/15 01:33:54;;;;;;;3.92;2.50;;;;;;;17.89;55.08;97421.81;5038835;28;20060;-77
2021/06/15 01:36:21;;;;;;;4.00;3.30;;;;;;;17.86;55.33;97417.13;5074065;28;20028;-77
2021/06/15 01:38:49;;;;;;;3.92;2.67;;;;;;;17.72;55.59;97417.03;5052558;28;20555;-77
2021/06/15 01:41:18;;;;;;;2.80;2.42;;;;;;;17.63;55.94;97423.19;5039200;28;20368;-77
2021/06/15 01:43:46;;;;;;;3.95;2.70;;;;;;;17.60;56.02;97425.34;5020185;28;20067;-77
2021/06/15 01:46:13;;;;;;;3.88;2.75;;;;;;;17.65;56.17;97421.84;5035385;28;20682;-77
2021/06/15 01:48:47;;;;;;;3.55;3.25;;;;;;;17.51;56.02;97420.97;5051851;28;20037;-77
2021/06/15 01:51:15;;;;;;;3.38;2.70;;;;;;;17.58;56.04;97416.13;5049470;28;20097;-77
2021/06/15 01:53:44;;;;;;;3.10;2.70;;;;;;;17.45;56.32;97406.31;5042184;28;20378;-77
2021/06/15 01:56:10;;;;;;;3.97;2.75;;;;;;;17.56;55.78;97413.00;5052795;28;20353;-77
2021/06/15 01:58:37;;;;;;;3.38;2.38;;;;;;;17.55;56.23;97411.47;5052427;28;20108;-77
2021/06/15 02:01:03;;;;;;;4.53;2.78;;;;;;;17.48;56.30;97409.19;5025920;28;20091;-77
2021/06/15 02:03:30;;;;;;;3.22;2.53;;;;;;;17.44;56.21;97404.75;5032176;28;20678;-77
2021/06/15 02:05:58;;;;;;;4.25;2.80;;;;;;;17.45;56.19;97404.47;5030444;28;20876;-77
2021/06/15 02:08:38;;;;;;;3.13;2.83;;;;;;;17.26;56.22;97407.06;5015842;28;20037;-77
2021/06/15 02:11:04;;;;;;;3.50;2.90;;;;;;;17.41;56.25;97403.47;5023054;28;20025;-77
2021/06/15 02:13:31;;;;;;;3.05;2.53;;;;;;;17.38;56.26;97399.56;5017965;28;20057;-77
2021/06/15 02:16:00;;;;;;;5.65;3.13;;;;;;;17.25;56.43;97402.88;5007192;28;20418;-77
2021/06/15 02:18:29;;;;;;;3.75;2.88;;;;;;;17.25;56.72;97392.34;5031954;28;20439;-77
2021/06/15 02:20:56;;;;;;;4.15;2.85;;;;;;;17.26;56.80;97395.78;5015749;28;20033;-77
2021/06/15 02:23:23;;;;;;;3.70;2.45;;;;;;;17.24;56.69;97390.78;5031943;28;20086;-77
2021/06/15 02:25:58;;;;;;;3.90;2.83;;;;;;;17.04;57.23;97392.59;5031912;28;20099;-77
2021/06/15 02:28:24;;;;;;;5.00;3.47;;;;;;;17.24;56.91;97393.44;5032996;28;20033;-77
2021/06/15 02:30:49;;;;;;;3.65;2.95;;;;;;;17.25;56.92;97391.56;5032432;28;20084;-77
2021/06/15 02:33:28;;;;;;;3.38;2.67;;;;;;;17.09;57.20;97393.59;5015351;28;20485;-77
2021/06/15 02:36:04;;;;;;;6.38;2.80;;;;;;;17.06;57.47;97388.91;5033478;28;20030;-77
2021/06/15 02:38:32;;;;;;;3.38;2.60;;;;;;;17.21;56.80;97391.34;5028295;28;20496;-77
2021/06/15 02:41:02;;;;;;;3.50;2.42;;;;;;;17.22;56.60;97382.38;5033824;28;20068;-77
2021/06/15 02:43:28;;;;;;;4.13;2.78;;;;;;;17.34;56.20;97388.03;5029560;28;20026;-77
2021/06/15 02:45:55;;;;;;;2.90;2.60;;;;;;;17.32;56.13;97387.50;5014893;28;20033;-77
2021/06/15 02:48:25;;;;;;;4.15;2.70;;;;;;;17.27;56.27;97390.19;5045524;28;20033;-77
2021/06/15 02:50:52;;;;;;;4.65;2.65;;;;;;;17.19;56.42;97383.72;5034304;28;20078;-77
2021/06/15 02:53:26;;;;;;;3.90;2.90;;;;;;;17.01;56.72;97387.88;5023339;28;20069;-77
2021/06/15 02:55:59;;;;;;;3.80;3.05;;;;;;;16.92;57.35;97394.06;5048229;28;20426;-77
2021/06/15 02:58:26;;;;;;;5.07;3.08;;;;;;;16.98;57.06;97395.53;5000065;28;20048;-77
2021/06/15 03:00:51;;;;;;;3.42;2.92;;;;;;;17.02;56.89;97394.72;5013678;28;20032;-77
2021/06/15 03:03:17;;;;;;;4.07;3.25;;;;;;;16.92;57.22;97394.06;5029252;28;20041;-77
2021/06/15 03:05:42;;;;;;;4.22;3.25;;;;;;;16.90;57.12;97404.84;5032071;28;20515;-77
2021/06/15 03:08:09;;;;;;;3.33;2.60;;;;;;;16.88;57.17;97399.09;5033789;28;20094;-77
2021/06/15 03:10:35;;;;;;;4.45;2.95;;;;;;;16.89;57.13;97400.63;5033800;28;20509;-77
2021/06/15 03:13:11;;;;;;;3.30;2.72;;;;;;;16.57;57.83;97409.88;5013248;28;20060;-77
2021/06/15 03:15:45;;;;;;;3.38;2.55;;;;;;;16.59;57.72;97396.47;5032334;28;20036;-77
2021/06/15 03:18:23;;;;;;;4.50;3.37;;;;;;;16.48;58.20;97401.00;5016945;28;20040;-77
2021/06/15 03:20:49;;;;;;;6.20;2.90;;;;;;;16.55;58.32;97411.97;5047164;28;20568;-77
2021/06/15 03:23:33;;;;;;;3.30;2.97;;;;;;;16.39;58.76;97407.94;5029993;28;20036;-77
2021/06/15 03:26:03;;;;;;;3.97;3.47;;;;;;;16.40;58.82;97404.22;5033104;28;20128;-77
2021/06/15 03:28:29;;;;;;;3.83;3.08;;;;;;;16.60;58.79;97417.19;5032811;28;20079;-77
2021/06/15 03:30:55;;;;;;;4.00;3.33;;;;;;;16.63;58.68;97411.38;5032539;28;20057;-77
2021/06/15 03:33:21;;;;;;;8.50;3.35;;;;;;;16.56;58.93;97408.28;5016385;28;20082;-77
2021/06/15 03:35:56;;;;;;;4.20;2.95;;;;;;;16.45;59.12;97412.06;5015594;28;20021;-77
2021/06/15 03:38:24;;;;;;;3.10;2.80;;;;;;;16.59;58.92;97407.75;5028895;28;20028;-77
2021/06/15 03:40:53;;;;;;;4.00;2.83;;;;;;;16.61;58.83;97403.00;5029638;28;20396;-77
2021/06/15 03:43:20;;;;;;;3.25;2.95;;;;;;;16.76;58.63;97407.31;5043325;28;20029;-77
2021/06/15 03:45:55;;;;;;;3.13;2.70;;;;;;;16.70;58.69;97405.81;5045430;28;20032;-77
2021/06/15 03:48:21;;;;;;;3.17;2.88;;;;;;;16.93;58.07;97409.56;5013768;28;20136;-77
2021/06/15 03:50:49;;;;;;;3.65;2.78;;;;;;;17.01;57.25;97403.66;5015349;28;20093;-77
2021/06/15 03:53:16;;;;;;;3.85;3.20;;;;;;;17.00;57.50;97399.47;5010346;28;20082;-77
2021/06/15 03:55:44;;;;;;;4.20;2.55;;;;;;;17.04;57.49;97408.38;5029787;28;20036;-77
2021/06/15 03:58:13;;;;;;;3.45;3.15;;;;;;;17.04;58.29;97407.59;5028982;28;20496;-77
2021/06/15 04:00:44;;;;;;;4.00;3.03;;;;;;;16.98;58.54;97406.06;5026847;28;20037;-77
2021/06/15 04:03:10;;;;;;;4.00;2.78;;;;;;;17.17;58.54;97406.13;5017802;28;20041;-77
2021/06/15 04:05:37;;;;;;;3.17;2.65;;;;;;;17.20;58.33;97406.38;5013889;28;20036;-77
2021/06/15 04:08:06;;;;;;;3.38;2.97;;;;;;;17.22;58.46;97403.41;5032471;28;20111;-77
2021/06/15 04:10:32;;;;;;;3.78;2.90;;;;;;;17.37;58.22;97408.50;5030224;28;20028;-77
2021/06/15 04:13:01;;;;;;;3.67;3.00;;;;;;;17.34;58.31;97406.47;5011181;28;20029;-77
2021/06/15 04:15:27;;;;;;;7.65;3.72;;;;;;;17.58;58.13;97411.69;5013754;28;20040;-77
2021/06/15 04:17:57;;;;;;;4.07;3.35;;;;;;;17.66;57.82;97412.88;5029092;28;20113;-77
2021/06/15 04:20:25;;;;;;;3.15;2.70;;;;;;;17.60;57.41;97403.50;5025170;28;20502;-77
2021/06/15 04:22:51;;;;;;;3.20;2.90;;;;;;;17.80;57.33;97412.94;5030270;28;20037;-77
2021/06/15 04:25:20;;;;;;;3.97;3.25;;;;;;;17.76;57.70;97411.97;5031914;28;20048;-77
2021/06/15 04:27:46;;;;;;;2.90;2.60;;;;;;;17.89;57.83;97410.47;5029108;28;20116;-77
2021/06/15 04:30:13;;;;;;;3.55;2.85;;;;;;;17.89;57.44;97411.28;5029498;28;20032;-77
2021/06/15 04:33:00;;;;;;;3.30;2.58;;;;;;;17.69;57.38;97414.94;5031940;28;20077;-77
2021/06/15 04:35:38;;;;;;;4.20;2.80;;;;;;;17.83;57.39;97417.66;5048230;28;20041;-77
2021/06/15 04:38:07;;;;;;;3.47;2.80;;;;;;;18.00;57.07;97425.09;5029321;28;20053;-78
2021/06/15 04:40:45;;;;;;;3.63;3.00;;;;;;;17.92;56.53;97425.72;5021955;28;20025;-77
2021/06/15 04:43:29;;;;;;;3.50;3.20;;;;;;;17.94;56.05;97428.84;5009757;28;20038;-77
2021/06/15 04:46:03;;;;;;;4.80;3.33;;;;;;;18.17;56.27;97431.69;5043398;28;20513;-77
2021/06/15 04:48:30;;;;;;;3.53;3.20;;;;;;;18.36;56.02;97421.13;5013355;28;20037;-77
2021/06/15 04:51:01;;;;;;;3.20;2.70;;;;;;;18.38;56.53;97421.59;5010766;28;20033;-77
2021/06/15 04:53:30;;;;;;;4.15;3.17;;;;;;;18.48;56.51;97419.59;5030741;28;20463;-77
2021/06/15 04:55:57;;;;;;;4.40;3.53;;;;;;;18.61;56.44;97431.25;5012253;28;20036;-77
2021/06/15 04:58:23;;;;;;;5.05;3.90;;;;;;;18.70;57.70;97426.09;5011681;28;20029;-77
2021/06/15 05:00:51;;;;;;;5.13;3.20;;;;;;;18.66;57.66;97417.16;5029914;28;20045;-77
2021/06/15 05:03:18;;;;;;;5.18;3.55;;;;;;;18.84;57.87;97424.25;5030605;28;20037;-77
2021/06/15 05:05:44;;;;;;;6.85;3.25;;;;;;;19.03;56.99;97434.72;5011271;28;20056;-77
2021/06/15 05:08:14;;;;;;;4.13;3.58;;;;;;;19.10;56.08;97436.97;5015028;28;20037;-77
2021/06/15 05:10:41;;;;;;;4.05;3.63;;;;;;;19.23;55.19;97444.13;5029680;28;20029;-77
2021/06/15 05:13:10;;;;;;;4.25;3.17;;;;;;;19.35;54.66;97438.34;5016976;28;20025;-77
2021/06/15 05:15:41;;;;;;;3.72;2.97;;;;;;;19.57;54.51;97435.00;5047052;28;20038;-77
2021/06/15 05:18:07;;;;;;;3.65;2.88;;;;;;;19.74;54.24;97442.34;5018956;28;20029;-77
2021/06/15 05:20:32;;;;;;;4.32;3.15;;;;;;;19.91;53.82;97446.19;5016286;28;20086;-77
2021/06/15 05:23:03;;;;;;;4.95;2.83;;;;;;;19.94;54.21;97448.25;5015981;28;20041;-77
2021/06/15 05:25:29;;;;;;;3.30;3.00;;;;;;;20.23;54.20;97450.50;5049461;28;20029;-77
2021/06/15 05:27:55;;;;;;;3.78;3.30;;;;;;;20.39;54.60;97450.91;5019025;28;20162;-77
2021/06/15 05:30:22;;;;;;;5.13;3.53;;;;;;;20.50;54.15;97454.13;5019953;28;20503;-77
2021/06/15 05:32:48;;;;;;;3.65;2.70;;;;;;;20.60;52.89;97461.81;5032409;28;20379;-77
2021/06/15 05:35:14;;;;;;;3.60;3.30;;;;;;;20.73;52.23;97458.31;5029151;28;20514;-77
2021/06/15 05:37:41;;;;;;;4.40;3.17;;;;;;;20.81;51.30;97453.38;5034184;28;20044;-77
2021/06/15 05:40:07;;;;;;;3.70;3.40;;;;;;;21.02;51.53;97459.69;5029208;28;20128;-77
2021/06/15 05:42:32;;;;;;;3.03;2.70;;;;;;;21.13;50.58;97461.00;5032897;28;20471;-77
2021/06/15 05:44:57;;;;;;;4.88;2.88;;;;;;;21.30;49.82;97459.47;5032544;28;20090;-77
2021/06/15 05:47:23;;;;;;;3.35;3.03;;;;;;;21.46;49.41;97462.50;5019748;28;20025;-77
2021/06/15 05:49:48;;;;;;;3.55;2.47;;;;;;;21.62;49.13;97473.47;5035278;28;20029;-77
2021/06/15 05:52:14;;;;;;;4.32;3.40;;;;;;;21.78;49.14;97471.13;5033530;28;20033;-77
2021/06/15 05:54:40;;;;;;;3.55;2.80;;;;;;;21.91;49.01;97472.09;5022731;28;20476;-77
2021/06/15 05:57:06;;;;;;;4.03;3.13;;;;;;;22.10;48.87;97471.78;5004220;28;20080;-77
2021/06/15 05:59:32;;;;;;;3.13;2.65;;;;;;;22.26;49.36;97480.84;5027931;28;20595;-77
2021/06/15 06:01:57;;;;;;;6.82;3.00;;;;;;;22.29;49.71;97474.16;5034535;28;20084;-77
2021/06/15 06:04:27;;;;;;;3.92;2.72;;;;;;;22.49;49.08;97486.00;5019836;28;20119;-78
2021/06/15 06:09:37;;;;;;;4.30;3.00;;;;;;;22.58;48.53;97489.41;5045528;28;20075;-76
2021/06/15 06:12:04;;;;;;;4.70;3.05;;;;;;;22.74;48.18;97497.66;5031288;28;20025;-76
2021/06/15 06:14:29;;;;;;;3.95;2.80;;;;;;;22.70;48.16;97488.78;5019315;28;20041;-76
2021/06/15 06:16:55;;;;;;;3.22;2.92;;;;;;;23.11;47.95;97490.09;5045599;28;20585;-76
2021/06/15 06:19:20;;;;;;;5.63;3.00;;;;;;;23.24;47.33;97483.78;5026075;28;20456;-76
2021/06/15 06:21:46;;;;;;;4.20;2.97;;;;;;;23.37;46.54;97492.63;5027709;28;20033;-76
2021/06/15 06:24:12;;;;;;;4.10;3.10;;;;;;;23.47;46.26;97492.25;5032352;28;20104;-76
2021/06/15 06:26:38;;;;;;;3.10;2.85;;;;;;;23.68;46.04;97486.19;5016155;28;20115;-76
2021/06/15 06:29:04;;;;;;;4.32;2.85;;;;;;;23.63;45.27;97489.84;5024594;28;20071;-76
2021/06/15 06:31:30;;;;;;;6.63;3.78;;;;;;;23.82;45.35;97491.31;5016129;28;20037;-76
2021/06/15 06:33:55;;;;;;;4.07;3.30;;;;;;;23.98;44.89;97497.63;5047617;28;20488;-76
2021/06/15 06:36:21;;;;;;;3.25;2.83;;;;;;;24.12;45.09;97497.34;5030891;28;20041;-76
2021/06/15 06:38:51;;;;;;;3.83;2.88;;;;;;;24.22;43.88;97498.84;5051600;28;20698;-77
2021/06/15 06:41:17;;;;;;;3.25;2.88;;;;;;;24.40;43.81;97496.81;5014221;28;20029;-76
2021/06/15 06:43:42;;;;;;;4.18;3.00;;;;;;;24.76;43.24;97500.72;5005032;28;20066;-76
2021/06/15 06:46:08;;;;;;;3.72;3.15;;;;;;;25.01;42.81;97498.91;5026225;28;20048;-75
2021/06/15 06:48:33;;;;;;;3.15;2.80;;;;;;;25.30;42.65;97502.50;5030364;28;20025;-76
2021/06/15 06:50:59;;;;;;;3.10;2.80;;;;;;;25.52;42.21;97520.72;5044881;28;20037;-75
2021/06/15 06:53:24;;;;;;;4.05;2.72;;;;;;;25.63;41.19;97510.38;4992413;28;20032;-76
2021/06/15 06:55:49;;;;;;;4.32;2.55;;;;;;;25.70;40.99;97509.81;5012750;28;20124;-76
2021/06/15 06:58:15;;;;;;;3.17;2.88;;;;;;;26.06;40.19;97510.88;5032515;28;20036;-76
2021/06/15 07:00:41;;;;;;;4.63;2.67;;;;;;;26.24;39.26;97508.72;5014781;28;20134;-77
2021/06/15 07:03:06;;;;;;;3.20;2.90;;;;;;;26.32;39.52;97513.13;5024580;28;20044;-76
2021/06/15 07:05:32;;;;;;;4.85;2.67;;;;;;;26.22;39.04;97511.75;5013498;28;20060;-76
2021/06/15 07:07:57;;;;;;;2.85;2.63;;;;;;;26.16;39.08;97515.75;5011391;28;20463;-76
2021/06/15 07:10:23;;;;;;;5.00;2.85;;;;;;;26.35;38.83;97510.56;5029843;28;20452;-76
2021/06/15 07:12:49;;;;;;;4.28;2.75;;;;;;;26.81;38.83;97512.94;5016229;28;20059;-76
2021/06/15 07:15:15;;;;;;;3.35;3.03;;;;;;;26.97;38.21;97512.94;5032798;28;20033;-76
2021/06/15 07:17:41;;;;;;;3.35;2.80;;;;;;;27.28;37.81;97511.44;5032319;28;20037;-75
2021/06/15 07:20:07;;;;;;;4.00;2.95;;;;;;;27.45;36.94;97507.63;5012198;28;20364;-76
2021/06/15 07:22:33;;;;;;;4.13;2.63;;;;;;;27.82;36.80;97520.69;5027809;28;20025;-76
2021/06/15 07:24:59;;;;;;;3.08;2.75;;;;;;;27.80;36.64;97501.53;5013239;28;20548;-76
2021/06/15 07:27:25;;;;;;;3.10;2.50;;;;;;;28.16;35.83;97508.41;4997419;28;20048;-76
2021/06/15 07:29:50;;;;;;;3.13;2.83;;;;;;;28.30;36.54;97507.16;5031367;28;20060;-76
2021/06/15 07:32:16;;;;;;;4.40;2.70;;;;;;;28.42;34.91;97509.66;5014596;28;20499;-77
2021/06/15 07:34:41;;;;;;;3.35;2.97;;;;;;;28.72;34.70;97506.41;5019492;28;20068;-76
2021/06/15 07:37:07;;;;;;;3.28;2.20;;;;;;;28.90;34.80;97512.84;5014096;28;20411;-75
2021/06/15 07:39:33;;;;;;;3.38;2.88;;;;;;;29.18;33.97;97511.81;5023649;28;20042;-76
2021/06/15 07:41:58;;;;;;;3.25;2.70;;;;;;;28.85;33.93;97510.47;4995957;28;20092;-76
2021/06/15 07:44:24;;;;;;;3.83;2.70;;;;;;;28.98;33.55;97502.25;5022847;28;20469;-76
2021/06/15 07:46:50;;;;;;;2.50;2.30;;;;;;;29.74;32.42;97504.19;5006377;28;20047;-75
2021/06/15 07:49:15;;;;;;;2.80;2.60;;;;;;;29.96;33.09;97506.06;5008918;28;20021;-75
2021/06/15 07:51:40;;;;;;;4.88;3.38;;;;;;;29.80;32.64;97510.81;5011827;28;20037;-76
2021/06/15 07:54:06;;;;;;;2.80;2.50;;;;;;;29.37;32.85;97512.88;5043079;28;20551;-76
2021/06/15 07:56:32;;;;;;;4.70;3.05;;;;;;;29.86;32.15;97514.75;5014306;28;20033;-76
2021/06/15 07:58:57;;;;;;;2.90;2.50;;;;;;;30.12;32.78;97513.16;5029005;28;20039;-76
2021/06/15 08:01:23;;;;;;;2.58;2.38;;;;;;;30.46;32.11;97510.50;5028543;28;20110;-76
2021/06/15 08:03:48;;;;;;;2.92;2.65;;;;;;;30.36;31.15;97506.53;5015797;28;20487;-76
2021/06/15 08:06:14;;;;;;;2.60;2.40;;;;;;;30.32;31.83;97506.47;5017630;28;20064;-76
2021/06/15 08:08:40;;;;;;;3.13;2.45;;;;;;;30.48;31.31;97502.84;5011965;28;20033;-76
2021/06/15 08:11:06;;;;;;;3.08;2.35;;;;;;;30.54;31.50;97512.88;5024179;28;20484;-76
2021/06/15 08:13:32;;;;;;;5.55;2.90;;;;;;;30.67;30.20;97507.25;5041847;28;20582;-76
2021/06/15 08:15:58;;;;;;;2.45;2.25;;;;;;;31.01;30.63;97502.59;5021598;28;20078;-76
2021/06/15 08:18:24;;;;;;;3.42;2.72;;;;;;;30.84;30.29;97503.19;5014540;28;20029;-75
2021/06/15 08:20:51;;;;;;;2.70;2.50;;;;;;;30.94;30.44;97502.53;5034793;28;20099;-75
2021/06/15 08:23:17;;;;;;;2.60;2.40;;;;;;;31.01;30.70;97504.50;5020243;28;20502;-75
2021/06/15 08:25:44;;;;;;;3.25;3.05;;;;;;;31.11;31.00;97501.91;5013786;28;20068;-76
2021/06/15 08:28:10;;;;;;;3.63;2.50;;;;;;;30.85;29.02;97504.75;5000762;28;20134;-76
2021/06/15 08:30:35;;;;;;;3.55;2.88;;;;;;;31.28;28.99;97500.50;5035336;28;20702;-75
2021/06/15 08:33:01;;;;;;;2.95;2.25;;;;;;;31.41;29.08;97500.19;5026862;28;20407;-76
2021/06/15 08:35:27;;;;;;;3.33;2.40;;;;;;;31.50;28.86;97501.44;5049342;28;20487;-76
2021/06/15 08:37:52;;;;;;;2.60;2.40;;;;;;;31.76;28.64;97505.06;5027965;28;20041;-75
2021/06/15 08:40:18;;;;;;;3.42;2.65;;;;;;;31.68;28.57;97515.00;5015792;28;20025;-76
2021/06/15 08:42:44;;;;;;;4.13;2.50;;;;;;;31.95;28.66;97514.00;5028421;28;20051;-76
2021/06/15 08:45:12;;;;;;;4.75;3.30;;;;;;;32.08;28.93;97512.53;5016149;28;20083;-75
2021/06/15 08:47:38;;;;;;;4.07;2.80;;;;;;;31.55;29.51;97506.47;5002259;28;20040;-76
2021/06/15 08:50:04;;;;;;;4.25;2.83;;;;;;;31.80;29.12;97513.91;5025289;28;20022;-77
2021/06/15 08:52:30;;;;;;;5.03;2.97;;;;;;;31.85;29.64;97507.41;5021819;28;20788;-75
2021/06/15 08:54:55;;;;;;;3.33;3.08;;;;;;;31.60;29.55;97512.63;5002198;28;20120;-76
2021/06/15 08:57:22;;;;;;;3.22;2.97;;;;;;;31.50;29.80;97501.44;5021823;28;20048;-76
2021/06/15 08:59:47;;;;;;;3.45;2.70;;;;;;;31.95;29.68;97503.22;5033533;28;20074;-76
2021/06/15 09:02:13;;;;;;;3.13;2.63;;;;;;;31.92;29.00;97504.75;5018231;28;20142;-76
2021/06/15 09:04:38;;;;;;;2.95;2.65;;;;;;;32.09;28.79;97503.31;5031377;28;20038;-76
2021/06/15 09:07:04;;;;;;;4.50;2.83;;;;;;;32.13;27.28;97504.06;5046548;28;20043;-76
2021/06/15 09:09:41;;;;;;;3.67;3.20;;;;;;;32.34;26.61;97499.91;5026044;28;20518;-75
2021/06/15 09:12:08;;;;;;;3.20;2.38;;;;;;;32.69;27.65;97493.09;5017393;28;20090;-75
2021/06/15 09:14:38;;;;;;;4.45;3.47;;;;;;;32.92;27.48;97498.91;5052512;28;20029;-76
2021/06/15 09:17:04;;;;;;;3.25;2.95;;;;;;;32.88;27.83;97498.09;5018232;28;20035;-75
2021/06/15 09:19:36;;;;;;;3.10;2.80;;;;;;;33.00;27.03;97496.97;5011078;28;20038;-75
2021/06/15 09:22:02;;;;;;;3.58;2.95;;;;;;;33.50;27.09;97494.25;5017948;28;20044;-75
2021/06/15 09:24:27;;;;;;;2.92;2.72;;;;;;;33.13;26.22;97494.66;5001743;28;20029;-75
2021/06/15 09:27:01;;;;;;;2.95;2.65;;;;;;;33.09;26.44;97497.38;5016426;28;20039;-76
2021/06/15 09:29:41;;;;;;;2.83;2.63;;;;;;;32.87;26.47;97491.19;5015402;28;20025;-75
2021/06/15 09:32:09;;;;;;;3.15;2.50;;;;;;;33.32;26.55;97482.72;5020339;28;20508;-75
2021/06/15 09:34:35;;;;;;;3.00;2.80;;;;;;;33.52;26.05;97485.75;5031335;28;20036;-75
2021/06/15 09:37:05;;;;;;;3.30;3.00;;;;;;;33.87;25.34;97490.31;5027595;28;20033;-75
2021/06/15 09:39:33;;;;;;;3.70;3.13;;;;;;;33.93;26.95;97480.66;5014184;28;20080;-75
2021/06/15 09:42:00;;;;;;;4.95;3.22;;;;;;;34.49;25.13;97480.75;5018427;28;20051;-75
2021/06/15 09:44:29;;;;;;;2.85;2.65;;;;;;;33.68;25.05;97490.78;5025545;28;20032;-75
2021/06/15 09:46:56;;;;;;;2.72;2.55;;;;;;;32.98;24.93;97485.78;5008531;28;20041;-75
2021/06/15 09:49:46;;;;;;;2.83;2.63;;;;;;;33.12;25.80;97495.81;5029014;28;20507;-76
2021/06/15 09:52:24;;;;;;;2.58;2.47;;;;;;;32.57;24.91;97491.50;5015944;28;20033;-76
2021/06/15 09:55:10;;;;;;;2.95;2.75;;;;;;;32.72;25.80;97495.03;5034149;28;20064;-76
2021/06/15 09:57:39;;;;;;;2.55;2.45;;;;;;;33.41;26.79;97486.53;5029153;28;20498;-76
2021/06/15 10:00:16;;;;;;;2.85;2.50;;;;;;;33.71;25.53;97487.28;5026417;28;20067;-75
2021/06/15 10:02:48;;;;;;;2.50;2.40;;;;;;;33.37;26.01;97483.09;5015344;28;20064;-75
2021/06/15 10:05:27;;;;;;;2.40;2.30;;;;;;;33.09;25.33;97480.38;5037200;28;20095;-76
2021/06/15 10:07:54;;;;;;;2.40;2.20;;;;;;;33.77;24.33;97478.38;5031516;28;20029;-75
2021/06/15 10:10:22;;;;;;;2.50;2.30;;;;;;;34.14;25.66;97487.88;5028389;28;20095;-75
2021/06/15 10:12:49;;;;;;;4.70;2.50;;;;;;;34.49;23.95;97480.75;4998391;28;20056;-75
2021/06/15 10:15:15;;;;;;;2.47;2.28;;;;;;;34.47;23.85;97477.69;5011167;28;20044;-75
2021/06/15 10:17:42;;;;;;;2.60;2.20;;;;;;;34.65;23.33;97487.63;5027983;28;20037;-76
2021/06/15 10:20:08;;;;;;;2.40;2.20;;;;;;;35.00;21.88;97483.91;5029114;28;20472;-75
2021/06/15 10:22:36;;;;;;;2.80;2.60;;;;;;;35.04;23.05;97481.91;5009318;28;20099;-76
2021/06/15 10:25:03;;;;;;;2.85;2.50;;;;;;;35.02;22.63;97483.50;5033046;28;20035;-76
2021/06/15 10:27:28;;;;;;;3.10;2.80;;;;;;;35.45;22.81;97472.28;5033396;28;20087;-75
2021/06/15 10:29:54;;;;;;;2.78;2.58;;;;;;;35.09;22.29;97478.03;5029968;28;20867;-75
2021/06/15 10:32:22;;;;;;;2.60;2.40;;;;;;;34.95;22.77;97480.88;5012494;28;20071;-76
2021/06/15 10:35:07;;;;;;;4.78;3.05;;;;;;;35.26;23.33;97482.53;5027584;28;20025;-76
2021/06/15 10:37:32;;;;;;;3.20;2.90;;;;;;;35.72;21.38;97482.50;5019949;28;20048;-76
2021/06/15 10:39:59;;;;;;;3.20;2.95;;;;;;;36.34;20.15;97480.56;5015706;28;20451;-76
2021/06/15 10:42:25;;;;;;;3.67;2.58;;;;;;;36.14;21.14;97483.13;5004844;28;20032;-75
2021/06/15 10:45:17;;;;;;;3.25;2.60;;;;;;;36.02;20.93;97475.53;5032168;28;20092;-75
2021/06/15 10:48:05;;;;;;;3.53;2.65;;;;;;;35.99;21.62;97469.00;5030164;28;20025;-76
2021/06/15 10:50:44;;;;;;;2.92;2.63;;;;;;;36.03;21.83;97474.38;5023158;28;20029;-75
2021/06/15 10:53:10;;;;;;;2.80;2.60;;;;;;;36.14;21.60;97466.88;5024511;28;20032;-76
2021/06/15 10:55:47;;;;;;;3.42;2.80;;;;;;;36.65;20.83;97466.94;5036448;28;20069;-76
2021/06/15 10:58:13;;;;;;;2.95;2.65;;;;;;;36.54;21.47;97467.13;5027602;28;20040;-76
2021/06/15 11:00:52;;;;;;;2.70;2.47;;;;;;;36.16;21.76;97465.28;5019537;28;20041;-76
2021/06/15 11:03:17;;;;;;;3.40;3.20;;;;;;;36.23;21.09;97469.88;5022345;28;20033;-75
2021/06/15 11:05:54;;;;;;;3.72;3.42;;;;;;;36.59;22.54;97463.94;5019976;28;20038;-75
2021/06/15 11:08:22;;;;;;;3.17;2.88;;;;;;;36.07;21.31;97464.25;5026180;28;20358;-75
2021/06/15 11:10:47;;;;;;;3.03;2.83;;;;;;;35.83;22.06;97471.53;5016166;28;20140;-75
2021/06/15 11:13:12;;;;;;;3.70;3.38;;;;;;;36.11;21.30;97462.28;5046019;28;20115;-75
2021/06/15 11:15:55;;;;;;;4.40;3.00;;;;;;;35.91;21.12;97467.56;5021296;28;20041;-75
2021/06/15 11:18:21;;;;;;;3.47;3.20;;;;;;;36.03;22.23;97469.72;5014398;28;20040;-75
2021/06/15 11:20:49;;;;;;;3.15;2.90;;;;;;;36.06;21.68;97460.03;5004246;28;20037;-74
2021/06/15 11:23:18;;;;;;;5.07;2.90;;;;;;;36.03;21.23;97456.16;4999140;28;20032;-74
2021/06/15 11:25:54;;;;;;;3.22;2.90;;;;;;;35.77;21.64;97449.53;5154165;27;86607;-75
2021/06/15 11:28:36;;;;;;;4.20;3.38;;;;;;;35.01;22.34;97447.56;5107961;28;20118;-76
2021/06/15 11:31:22;;;;;;;3.67;3.45;;;;;;;35.11;23.56;97448.63;5134372;27;20049;-75
2021/06/15 11:33:59;;;;;;;2.80;2.60;;;;;;;35.20;21.88;97445.44;5120639;27;20374;-75
2021/06/15 11:36:45;;;;;;;3.05;2.80;;;;;;;35.04;22.75;97444.03;5130602;27;20023;-76
2021/06/15 11:39:23;;;;;;;3.88;3.40;;;;;;;34.78;21.98;97440.03;5110036;27;20106;-75
2021/06/15 11:42:07;;;;;;;3.00;2.65;;;;;;;34.67;21.83;97437.38;5116871;27;20427;-75
2021/06/15 11:44:51;;;;;;;3.30;3.00;;;;;;;33.98;23.77;97438.94;5124151;27;20070;-76